Time;durP1;ratioP1;P1;durP2;ratioP2;P2;SDS_P1;SDS_P2;PMS_P1;PMS_P2;Temp;Humidity;BMP_temperature;BMP_pressure;BME280_temperature;BME280_humidity;BME280_pressure;Samples;Min_cycle;Max_cycle;Signal;HPM_P1;HPM_P2
2021/05/17 00:09:42;;;;;;;4.13;3.40;;;;;;;10.29;100.00;99358.75;21037146;27;20910;-60
2021/05/17 00:19:42;;;;;;;3.80;3.40;;;;;;;10.21;100.00;99358.53;21032434;28;20226;-61
2021/05/17 00:29:43;;;;;;;3.97;3.67;;;;;;;10.14;100.00;99345.78;21034615;28;20274;-73
2021/05/17 00:39:44;;;;;;;4.37;4.00;;;;;;;10.10;100.00;99348.66;21038409;28;20217;-61
2021/05/17 00:49:45;;;;;;;4.07;3.77;;;;;;;10.04;100.00;99342.94;21024795;28;20228;-61
2021/05/17 01:20:07;;;;;;;4.23;3.90;;;;;;;9.75;100.00;99359.38;20950579;27;862487;-66
2021/05/17 01:30:08;;;;;;;4.70;4.30;;;;;;;9.68;100.00;99363.44;21022981;28;20245;-60
2021/05/17 01:50:10;;;;;;;4.77;4.20;;;;;;;9.56;100.00;99380.38;20879236;27;20661;-60
2021/05/17 02:00:13;;;;;;;4.20;3.90;;;;;;;9.54;100.00;99379.63;20872686;28;20308;-60
2021/05/17 02:30:06;;;;;;;5.83;5.33;;;;;;;9.31;100.00;99396.47;21222445;27;20544;-61
2021/05/17 02:50:04;;;;;;;7.80;6.90;;;;;;;9.28;100.00;99391.38;20896215;27;20555;-61
2021/05/17 03:10:02;;;;;;;8.63;7.93;;;;;;;9.72;100.00;99388.91;21020281;27;843255;-61
2021/05/17 03:20:04;;;;;;;8.17;7.47;;;;;;;10.85;100.00;99401.47;21028566;28;20217;-61
2021/05/17 03:30:05;;;;;;;6.40;5.90;;;;;;;12.23;100.00;99408.63;21037573;28;20210;-60
2021/05/17 03:40:07;;;;;;;6.63;6.03;;;;;;;14.31;100.00;99398.78;21018485;28;20634;-62
2021/05/17 03:50:09;;;;;;;4.97;4.67;;;;;;;16.17;88.50;99406.38;21054321;28;20216;-60
2021/05/17 04:00:10;;;;;;;6.60;6.10;;;;;;;17.34;79.54;99412.09;21052309;28;20213;-61
2021/05/17 04:20:30;;;;;;;5.57;5.07;;;;;;;18.24;77.53;99392.31;20967448;28;20622;-61
2021/05/17 04:30:31;;;;;;;5.00;4.60;;;;;;;18.39;79.37;99429.44;20984048;28;20270;-61
2021/05/17 04:40:31;;;;;;;5.90;5.40;;;;;;;18.03;79.83;99416.28;20960562;28;20225;-66
2021/05/17 04:50:32;;;;;;;5.10;4.70;;;;;;;18.00;80.74;99422.00;20979153;28;20829;-61
2021/05/17 05:00:32;;;;;;;5.67;4.80;;;;;;;17.83;79.56;99433.81;20963399;28;20894;-60
2021/05/17 05:10:33;;;;;;;5.33;4.93;;;;;;;17.41;78.53;99432.00;20973541;28;20219;-60
2021/05/17 05:20:33;;;;;;;6.60;6.00;;;;;;;16.77;79.66;99427.19;20946234;28;20640;-66
2021/05/17 05:30:53;;;;;;;6.50;5.20;;;;;;;16.26;83.60;99433.34;20860581;28;20219;-64
2021/05/17 05:40:54;;;;;;;7.30;5.47;;;;;;;16.16;84.87;99428.91;20893642;28;20218;-63
2021/05/17 05:50:54;;;;;;;5.60;5.10;;;;;;;16.12;86.25;99405.16;20901114;28;20284;-62
2021/05/17 06:00:55;;;;;;;7.10;6.50;;;;;;;16.30;88.34;99402.44;20902498;28;20381;-60
2021/05/17 06:10:55;;;;;;;7.23;6.53;;;;;;;16.35;88.22;99416.25;20900797;28;20330;-61
2021/05/17 06:20:56;;;;;;;8.50;7.80;;;;;;;16.36;88.68;99408.03;20903942;28;20243;-59
2021/05/17 06:31:00;;;;;;;8.67;7.83;;;;;;;16.48;88.81;99405.91;20903556;28;20966;-60
2021/05/17 06:41:01;;;;;;;9.33;8.53;;;;;;;16.62;87.56;99410.75;20902190;28;20271;-59
2021/05/17 06:51:01;;;;;;;6.53;5.97;;;;;;;16.85;88.54;99406.50;20902455;28;20243;-57
2021/05/17 07:01:02;;;;;;;7.10;6.40;;;;;;;17.20;85.43;99396.53;20901742;28;20731;-58
2021/05/17 07:31:22;;;;;;;7.50;6.90;;;;;;;18.04;77.30;99382.88;20900793;28;20219;-60
2021/05/17 07:41:23;;;;;;;3.50;3.30;;;;;;;18.27;77.32;99377.63;20900454;28;20618;-58
2021/05/17 07:51:24;;;;;;;3.03;2.83;;;;;;;18.57;74.79;99376.06;20907345;28;20220;-59
2021/05/17 08:01:24;;;;;;;3.20;3.00;;;;;;;18.82;73.07;99379.56;20914893;28;20227;-60
2021/05/17 08:11:25;;;;;;;3.50;3.20;;;;;;;19.00;71.97;99383.72;20914595;28;20211;-59
2021/05/17 08:21:25;;;;;;;3.67;3.37;;;;;;;19.47;71.49;99374.69;20913444;28;20228;-59
2021/05/17 08:31:26;;;;;;;3.60;3.30;;;;;;;19.67;69.18;99375.13;20912655;28;20254;-68
2021/05/17 08:41:28;;;;;;;3.30;2.87;;;;;;;19.99;68.40;99372.16;20911989;28;20701;-59
2021/05/17 08:51:33;;;;;;;1.87;1.70;;;;;;;20.66;62.88;99366.78;20911011;28;20230;-65
2021/05/17 09:01:34;;;;;;;2.40;2.20;;;;;;;20.85;63.92;99370.81;20909043;28;20223;-59
2021/05/17 09:11:34;;;;;;;2.50;2.20;;;;;;;21.22;58.15;99355.47;20909915;28;20933;-58
2021/05/17 09:21:54;;;;;;;2.43;2.23;;;;;;;20.80;59.04;99346.13;20909030;28;20243;-71
2021/05/17 09:31:55;;;;;;;2.50;2.37;;;;;;;20.96;61.53;99345.94;20908251;28;20637;-59
2021/05/17 09:41:56;;;;;;;2.90;2.30;;;;;;;20.89;60.28;99347.69;20906160;28;20269;-59
2021/05/17 09:52:29;;;;;;;2.00;1.60;;;;;;;21.48;56.54;99355.78;20906756;28;20302;-68
2021/05/17 10:02:47;;;;;;;2.10;1.90;;;;;;;21.41;57.81;99344.84;20812155;28;20228;-61
2021/05/17 10:12:47;;;;;;;1.90;1.80;;;;;;;21.89;60.08;99335.09;20811801;28;20590;-61
2021/05/17 10:22:49;;;;;;;1.80;1.70;;;;;;;22.50;54.30;99329.94;20832949;28;20233;-61
2021/05/17 10:32:55;;;;;;;1.90;1.80;;;;;;;22.82;54.12;99322.22;20805734;28;20230;-65
2021/05/17 10:43:07;;;;;;;1.80;1.70;;;;;;;22.85;53.40;99329.97;20876387;28;21022;-64
2021/05/17 10:53:42;;;;;;;1.60;1.50;;;;;;;22.50;50.67;99318.22;20883706;28;20242;-66
2021/05/17 11:03:42;;;;;;;1.70;1.60;;;;;;;22.80;51.03;99314.25;20868925;28;20227;-65
2021/05/17 11:13:46;;;;;;;1.67;1.57;;;;;;;23.20;53.32;99326.13;20879915;28;20365;-65
2021/05/17 11:23:51;;;;;;;1.57;1.47;;;;;;;23.24;51.40;99316.53;20877712;28;20231;-67
2021/05/17 11:34:01;;;;;;;2.60;1.83;;;;;;;22.82;50.18;99314.06;20901569;28;20760;-68
2021/05/17 11:44:03;;;;;;;2.80;1.70;;;;;;;22.57;52.14;99319.97;20902953;28;20296;-65
2021/05/17 11:54:04;;;;;;;1.80;1.70;;;;;;;22.10;52.13;99309.78;20901749;28;20219;-68
2021/05/17 12:04:25;;;;;;;1.83;1.73;;;;;;;21.65;52.04;99318.34;20907372;28;20229;-68
2021/05/17 12:14:26;;;;;;;2.50;1.93;;;;;;;21.34;55.14;99310.53;20898961;28;20968;-65
2021/05/17 12:24:28;;;;;;;3.27;2.30;;;;;;;21.37;56.61;99315.56;20890738;28;20316;-63
2021/05/17 12:34:29;;;;;;;2.20;2.00;;;;;;;21.63;55.98;99321.25;20895898;28;20320;-68
2021/05/17 12:44:35;;;;;;;1.97;1.87;;;;;;;21.99;54.96;99314.91;20895222;28;20226;-68
2021/05/17 12:54:35;;;;;;;2.17;2.00;;;;;;;21.94;55.44;99318.22;20886506;28;20310;-67
2021/05/17 13:04:36;;;;;;;2.20;2.10;;;;;;;22.04;55.22;99312.47;20902217;28;21979;-67
2021/05/17 13:14:41;;;;;;;2.20;1.80;;;;;;;22.20;54.89;99301.31;20892757;28;20211;-68
2021/05/17 13:35:33;;;;;;;2.30;2.10;;;;;;;22.43;54.69;99280.13;20709323;28;20261;-67
2021/05/17 13:45:35;;;;;;;2.23;2.00;;;;;;;22.76;54.64;99274.91;20695518;28;20364;-67
2021/05/17 13:55:36;;;;;;;4.33;2.33;;;;;;;23.51;53.70;99289.41;20701227;28;20475;-66
2021/05/17 14:05:37;;;;;;;2.20;2.00;;;;;;;23.94;52.21;99249.81;20727976;28;20244;-69
2021/05/17 14:15:39;;;;;;;2.67;2.13;;;;;;;23.83;50.83;99271.41;20868674;28;20217;-66
2021/05/17 14:25:40;;;;;;;2.33;2.13;;;;;;;23.63;52.34;99268.69;20862166;28;20226;-67
2021/05/17 14:35:40;;;;;;;2.10;2.00;;;;;;;23.38;50.74;99262.13;20871856;28;20236;-67
2021/05/17 14:45:41;;;;;;;2.23;1.97;;;;;;;22.91;51.16;99272.03;20857253;28;20235;-66
2021/05/17 14:55:42;;;;;;;2.17;2.07;;;;;;;22.37;52.12;99274.66;20877120;28;20227;-64
2021/05/17 15:05:42;;;;;;;2.77;2.13;;;;;;;22.00;52.83;99259.56;20861623;28;20233;-66
2021/05/17 15:15:42;;;;;;;2.40;2.17;;;;;;;21.73;53.20;99262.06;20866454;28;20237;-65
2021/05/17 15:25:43;;;;;;;2.80;2.50;;;;;;;21.40;54.65;99250.03;20840731;28;20238;-66
2021/05/17 15:35:45;;;;;;;3.40;3.10;;;;;;;20.97;57.36;99249.13;20874044;28;20572;-65
2021/05/17 15:45:46;;;;;;;3.07;2.60;;;;;;;20.87;57.73;99260.28;20864000;28;20322;-66
2021/05/17 15:55:47;;;;;;;2.43;2.23;;;;;;;20.81;56.72;99251.03;20844956;28;20900;-69
2021/05/17 16:05:47;;;;;;;2.27;1.83;;;;;;;20.43;57.39;99242.19;20876532;28;20320;-68
2021/05/17 16:25:48;;;;;;;6.13;4.20;;;;;;;19.65;62.16;99249.94;20888831;28;20241;-68
2021/05/17 16:35:49;;;;;;;4.37;3.50;;;;;;;19.67;60.96;99242.50;20865501;28;20249;-68
2021/05/17 16:45:49;;;;;;;3.40;3.10;;;;;;;20.04;61.33;99249.75;20887051;28;20238;-68
2021/05/17 16:55:50;;;;;;;4.80;3.90;;;;;;;19.90;62.18;99262.22;20866528;28;20237;-67
2021/05/17 17:05:50;;;;;;;3.07;2.17;;;;;;;18.58;64.85;99265.16;20884854;28;20280;-68
2021/05/17 17:15:51;;;;;;;1.90;1.60;;;;;;;17.68;67.43;99266.34;20890406;28;20226;-68
2021/05/17 17:25:51;;;;;;;1.63;1.50;;;;;;;16.98;69.41;99270.47;20876944;28;20327;-61
2021/05/17 17:35:52;;;;;;;1.60;1.50;;;;;;;16.48;71.08;99277.50;20876618;28;20219;-66
2021/05/17 17:45:53;;;;;;;1.70;1.50;;;;;;;16.09;73.01;99271.72;20844056;28;20227;-64
2021/05/17 17:55:53;;;;;;;1.47;1.37;;;;;;;15.76;76.00;99265.31;20875361;28;20224;-65
2021/05/17 18:05:56;;;;;;;3.53;1.80;;;;;;;15.51;77.78;99260.69;20863483;28;20245;-65
2021/05/17 18:15:57;;;;;;;2.13;2.00;;;;;;;15.22;78.40;99263.63;20854912;28;20233;-66
2021/05/17 18:25:58;;;;;;;2.50;2.30;;;;;;;15.11;78.92;99258.50;20859216;28;20292;-66
2021/05/17 18:36:02;;;;;;;1.77;1.67;;;;;;;14.96;80.63;99265.41;20870629;28;20225;-68
2021/05/17 18:46:04;;;;;;;2.03;1.93;;;;;;;14.72;82.09;99280.25;20857630;28;20225;-64
2021/05/17 18:56:07;;;;;;;4.23;3.23;;;;;;;14.45;84.11;99284.78;20884943;28;20225;-66
2021/05/17 19:06:07;;;;;;;2.77;2.50;;;;;;;14.17;87.41;99289.22;20857554;28;20340;-65
2021/05/17 19:16:09;;;;;;;1.80;1.70;;;;;;;13.96;89.54;99282.25;20863224;28;20221;-66
2021/05/17 19:26:12;;;;;;;2.20;2.00;;;;;;;13.86;91.03;99278.75;20842265;28;20513;-66
2021/05/17 19:36:13;;;;;;;3.13;2.00;;;;;;;13.85;91.23;99282.41;20846503;28;20213;-65
2021/05/17 19:46:14;;;;;;;2.23;2.03;;;;;;;13.85;91.93;99273.53;20885423;28;20292;-69
2021/05/17 19:56:14;;;;;;;2.80;2.60;;;;;;;13.80;92.31;99282.00;20861494;28;20691;-65
2021/05/17 20:06:15;;;;;;;2.23;2.10;;;;;;;13.82;92.05;99285.38;20894258;28;20243;-66
2021/05/17 20:16:15;;;;;;;2.50;2.30;;;;;;;13.77;92.95;99282.28;20881483;28;20227;-66
2021/05/17 20:26:16;;;;;;;2.90;2.70;;;;;;;13.68;94.38;99265.22;20864389;28;20579;-67
2021/05/17 20:36:16;;;;;;;3.00;2.80;;;;;;;13.66;94.75;99269.03;20865476;28;20892;-68
2021/05/17 20:46:20;;;;;;;3.47;3.17;;;;;;;13.60;95.67;99266.94;20855283;28;20366;-67
2021/05/17 20:56:21;;;;;;;3.27;2.97;;;;;;;13.45;96.74;99246.91;20879564;28;20787;-67
2021/05/17 21:06:23;;;;;;;3.63;3.33;;;;;;;13.33;97.17;99231.00;20830421;28;20517;-67
2021/05/17 21:16:24;;;;;;;3.33;3.00;;;;;;;13.31;97.51;99219.56;20890583;28;20292;-67
2021/05/17 21:26:24;;;;;;;3.83;3.53;;;;;;;13.25;98.70;99233.56;20872276;28;20215;-66
2021/05/17 21:36:25;;;;;;;3.47;3.17;;;;;;;13.26;99.01;99234.41;20936756;28;20218;-66
2021/05/17 21:46:26;;;;;;;2.97;2.70;;;;;;;13.24;98.47;99231.00;20953090;28;20650;-68
2021/05/17 21:56:27;;;;;;;3.67;3.30;;;;;;;13.22;98.85;99223.09;20879588;28;20220;-66
2021/05/17 22:06:27;;;;;;;3.80;3.43;;;;;;;13.23;99.39;99240.03;20880412;28;20232;-67
2021/05/17 22:16:27;;;;;;;3.37;3.07;;;;;;;13.23;100.00;99240.88;20869905;28;20227;-66
2021/05/17 22:26:28;;;;;;;3.80;3.50;;;;;;;13.12;100.00;99224.91;20885359;28;20228;-66
2021/05/17 22:36:29;;;;;;;4.33;4.03;;;;;;;13.03;100.00;99224.94;20874150;28;20219;-67
2021/05/17 22:46:29;;;;;;;4.80;4.30;;;;;;;12.98;100.00;99203.91;20883717;28;20229;-67
2021/05/17 22:56:30;;;;;;;4.10;3.70;;;;;;;12.94;100.00;99197.13;20864348;28;20906;-67
2021/05/17 23:06:31;;;;;;;4.00;3.70;;;;;;;12.77;100.00;99200.53;20881299;28;20223;-66
2021/05/17 23:16:31;;;;;;;4.83;4.40;;;;;;;12.55;100.00;99213.19;20869658;28;20277;-67
2021/05/17 23:36:51;;;;;;;5.80;5.30;;;;;;;12.25;100.00;99207.88;20891512;28;20215;-67
2021/05/17 23:46:53;;;;;;;6.70;6.20;;;;;;;12.15;100.00;99213.22;20883983;28;20290;-67
2021/05/17 23:56:55;;;;;;;7.60;7.00;;;;;;;12.09;100.00;99196.84;20897537;28;20221;-69
